sensor_id;sensor_type;location;lat;lon;timestamp;temperature;humidity
3756;DHT22;1893;52.526;13.360;2022-10-15T00:00:36;13.30;99.90
3756;DHT22;1893;52.526;13.360;2022-10-15T00:03:02;13.30;99.90
3756;DHT22;1893;52.526;13.360;2022-10-15T00:05:28;13.30;99.90
3756;DHT22;1893;52.526;13.360;2022-10-15T00:07:53;13.20;99.90
3756;DHT22;1893;52.526;13.360;2022-10-15T00:10:19;13.20;99.90
3756;DHT22;1893;52.526;13.360;2022-10-15T00:12:45;13.20;99.90
3756;DHT22;1893;52.526;13.360;2022-10-15T00:15:11;13.20;99.90
3756;DHT22;1893;52.526;13.360;2022-10-15T00:17:37;13.20;99.90
3756;DHT22;1893;52.526;13.360;2022-10-15T00:20:05;13.10;99.90
3756;DHT22;1893;52.526;13.360;2022-10-15T00:22:31;13.10;99.90
3756;DHT22;1893;52.526;13.360;2022-10-15T00:24:57;13.00;99.90
3756;DHT22;1893;52.526;13.360;2022-10-15T00:27:23;13.00;99.90
3756;DHT22;1893;52.526;13.360;2022-10-15T00:29:48;13.00;99.90
3756;DHT22;1893;52.526;13.360;2022-10-15T00:32:14;12.90;99.90
3756;DHT22;1893;52.526;13.360;2022-10-15T00:34:40;12.90;99.90
3756;DHT22;1893;52.526;13.360;2022-10-15T00:37:06;12.90;99.90
3756;DHT22;1893;52.526;13.360;2022-10-15T00:39:32;12.90;99.90
3756;DHT22;1893;52.526;13.360;2022-10-15T00:41:57;12.80;99.90
3756;DHT22;1893;52.526;13.360;2022-10-15T00:46:56;12.80;99.90
3756;DHT22;1893;52.526;13.360;2022-10-15T00:49:33;12.80;99.90
3756;DHT22;1893;52.526;13.360;2022-10-15T00:52:04;12.80;99.90
3756;DHT22;1893;52.526;13.360;2022-10-15T00:54:33;12.80;99.90
3756;DHT22;1893;52.526;13.360;2022-10-15T00:57:00;12.80;99.90
3756;DHT22;1893;52.526;13.360;2022-10-15T00:59:27;12.70;99.90
3756;DHT22;1893;52.526;13.360;2022-10-15T01:01:54;12.70;99.90
3756;DHT22;1893;52.526;13.360;2022-10-15T01:04:20;12.70;99.90
3756;DHT22;1893;52.526;13.360;2022-10-15T01:06:45;12.70;99.90
3756;DHT22;1893;52.526;13.360;2022-10-15T01:09:12;12.80;99.90
3756;DHT22;1893;52.526;13.360;2022-10-15T01:17:06;12.80;99.90
3756;DHT22;1893;52.526;13.360;2022-10-15T01:23:06;12.80;99.90
3756;DHT22;1893;52.526;13.360;2022-10-15T01:37:07;12.80;99.90
3756;DHT22;1893;52.526;13.360;2022-10-15T01:39:40;12.80;99.90
3756;DHT22;1893;52.526;13.360;2022-10-15T01:42:27;12.80;99.90
3756;DHT22;1893;52.526;13.360;2022-10-15T01:44:59;12.80;99.90
3756;DHT22;1893;52.526;13.360;2022-10-15T01:47:36;12.80;99.90
3756;DHT22;1893;52.526;13.360;2022-10-15T01:50:03;12.90;99.90
3756;DHT22;1893;52.526;13.360;2022-10-15T01:52:32;12.80;99.90
3756;DHT22;1893;52.526;13.360;2022-10-15T01:55:02;12.80;99.90
3756;DHT22;1893;52.526;13.360;2022-10-15T01:57:29;12.80;99.90
3756;DHT22;1893;52.526;13.360;2022-10-15T01:59:57;12.80;99.90
3756;DHT22;1893;52.526;13.360;2022-10-15T02:02:23;12.80;99.90
3756;DHT22;1893;52.526;13.360;2022-10-15T02:04:49;12.80;99.90
3756;DHT22;1893;52.526;13.360;2022-10-15T02:07:32;12.80;99.90
3756;DHT22;1893;52.526;13.360;2022-10-15T02:10:07;12.80;99.90
3756;DHT22;1893;52.526;13.360;2022-10-15T02:15:52;12.80;99.90
3756;DHT22;1893;52.526;13.360;2022-10-15T02:18:47;12.80;99.90
3756;DHT22;1893;52.526;13.360;2022-10-15T02:21:14;12.80;99.90
3756;DHT22;1893;52.526;13.360;2022-10-15T02:23:53;12.80;99.90
3756;DHT22;1893;52.526;13.360;2022-10-15T02:26:22;12.80;99.90
3756;DHT22;1893;52.526;13.360;2022-10-15T02:28:53;12.80;99.90
3756;DHT22;1893;52.526;13.360;2022-10-15T02:31:22;12.80;99.90
3756;DHT22;1893;52.526;13.360;2022-10-15T02:33:50;12.80;99.90
3756;DHT22;1893;52.526;13.360;2022-10-15T02:36:17;12.80;99.90
3756;DHT22;1893;52.526;13.360;2022-10-15T02:38:44;12.80;99.90
3756;DHT22;1893;52.526;13.360;2022-10-15T02:41:10;12.80;99.90
3756;DHT22;1893;52.526;13.360;2022-10-15T02:43:37;12.80;99.90
3756;DHT22;1893;52.526;13.360;2022-10-15T02:46:04;12.90;99.90
3756;DHT22;1893;52.526;13.360;2022-10-15T02:48:30;12.80;99.90
3756;DHT22;1893;52.526;13.360;2022-10-15T02:50:55;12.90;99.90
3756;DHT22;1893;52.526;13.360;2022-10-15T02:53:21;12.90;99.90
3756;DHT22;1893;52.526;13.360;2022-10-15T02:55:46;12.80;99.90
3756;DHT22;1893;52.526;13.360;2022-10-15T02:58:12;12.90;99.90
3756;DHT22;1893;52.526;13.360;2022-10-15T03:00:38;12.90;99.90
3756;DHT22;1893;52.526;13.360;2022-10-15T03:03:03;12.90;99.90
3756;DHT22;1893;52.526;13.360;2022-10-15T03:05:29;12.90;99.90
3756;DHT22;1893;52.526;13.360;2022-10-15T03:07:54;12.90;99.90
3756;DHT22;1893;52.526;13.360;2022-10-15T03:10:20;12.90;99.90
3756;DHT22;1893;52.526;13.360;2022-10-15T03:12:46;12.90;99.90
3756;DHT22;1893;52.526;13.360;2022-10-15T03:15:11;12.90;99.90
3756;DHT22;1893;52.526;13.360;2022-10-15T03:17:37;12.90;99.90
3756;DHT22;1893;52.526;13.360;2022-10-15T03:20:03;12.80;99.90
3756;DHT22;1893;52.526;13.360;2022-10-15T03:22:29;12.90;99.90
3756;DHT22;1893;52.526;13.360;2022-10-15T03:24:54;12.90;99.90
3756;DHT22;1893;52.526;13.360;2022-10-15T03:27:20;12.90;99.90
3756;DHT22;1893;52.526;13.360;2022-10-15T03:29:45;12.90;99.90
3756;DHT22;1893;52.526;13.360;2022-10-15T03:32:11;12.90;99.90
3756;DHT22;1893;52.526;13.360;2022-10-15T03:34:36;12.80;99.90
3756;DHT22;1893;52.526;13.360;2022-10-15T03:37:02;12.80;99.90
3756;DHT22;1893;52.526;13.360;2022-10-15T03:39:27;12.80;99.90
3756;DHT22;1893;52.526;13.360;2022-10-15T03:41:53;12.90;99.90
3756;DHT22;1893;52.526;13.360;2022-10-15T03:44:18;12.80;99.90
3756;DHT22;1893;52.526;13.360;2022-10-15T03:46:44;12.90;99.90
3756;DHT22;1893;52.526;13.360;2022-10-15T03:49:10;12.80;99.90
3756;DHT22;1893;52.526;13.360;2022-10-15T03:51:36;12.90;99.90
3756;DHT22;1893;52.526;13.360;2022-10-15T03:54:02;12.80;99.90
3756;DHT22;1893;52.526;13.360;2022-10-15T03:56:27;12.80;99.90
3756;DHT22;1893;52.526;13.360;2022-10-15T03:58:53;12.80;99.90
3756;DHT22;1893;52.526;13.360;2022-10-15T04:01:18;12.90;99.90
3756;DHT22;1893;52.526;13.360;2022-10-15T04:03:44;12.90;99.90
3756;DHT22;1893;52.526;13.360;2022-10-15T04:06:10;12.90;99.90
3756;DHT22;1893;52.526;13.360;2022-10-15T04:08:35;12.90;99.90
3756;DHT22;1893;52.526;13.360;2022-10-15T04:11:01;12.90;99.90
3756;DHT22;1893;52.526;13.360;2022-10-15T04:13:27;12.80;99.90
3756;DHT22;1893;52.526;13.360;2022-10-15T04:15:53;12.90;99.90
3756;DHT22;1893;52.526;13.360;2022-10-15T04:18:19;12.90;99.90
3756;DHT22;1893;52.526;13.360;2022-10-15T04:20:46;12.80;99.90
3756;DHT22;1893;52.526;13.360;2022-10-15T04:23:12;12.80;99.90
3756;DHT22;1893;52.526;13.360;2022-10-15T04:25:38;12.80;99.90
3756;DHT22;1893;52.526;13.360;2022-10-15T04:28:05;12.80;99.90
3756;DHT22;1893;52.526;13.360;2022-10-15T04:30:32;12.90;99.90
3756;DHT22;1893;52.526;13.360;2022-10-15T04:32:58;12.90;99.90
3756;DHT22;1893;52.526;13.360;2022-10-15T04:35:23;12.90;99.90
3756;DHT22;1893;52.526;13.360;2022-10-15T04:37:49;12.80;99.90
3756;DHT22;1893;52.526;13.360;2022-10-15T04:40:15;12.80;99.90
3756;DHT22;1893;52.526;13.360;2022-10-15T04:42:40;12.80;99.90
3756;DHT22;1893;52.526;13.360;2022-10-15T04:45:06;12.80;99.90
3756;DHT22;1893;52.526;13.360;2022-10-15T04:47:32;12.90;99.90
3756;DHT22;1893;52.526;13.360;2022-10-15T04:49:58;12.80;99.90
3756;DHT22;1893;52.526;13.360;2022-10-15T04:52:24;12.90;99.90
3756;DHT22;1893;52.526;13.360;2022-10-15T04:54:49;12.90;99.90
3756;DHT22;1893;52.526;13.360;2022-10-15T04:57:15;12.80;99.90
3756;DHT22;1893;52.526;13.360;2022-10-15T04:59:40;12.80;99.90
3756;DHT22;1893;52.526;13.360;2022-10-15T05:02:06;12.90;99.90
3756;DHT22;1893;52.526;13.360;2022-10-15T05:04:32;12.90;99.90
3756;DHT22;1893;52.526;13.360;2022-10-15T05:06:57;12.90;99.90
3756;DHT22;1893;52.526;13.360;2022-10-15T05:09:23;12.90;99.90
3756;DHT22;1893;52.526;13.360;2022-10-15T05:11:48;12.90;99.90
3756;DHT22;1893;52.526;13.360;2022-10-15T05:14:14;12.90;99.90
3756;DHT22;1893;52.526;13.360;2022-10-15T05:16:40;12.90;99.90
3756;DHT22;1893;52.526;13.360;2022-10-15T05:19:07;12.90;99.90
3756;DHT22;1893;52.526;13.360;2022-10-15T05:21:33;12.90;99.90
3756;DHT22;1893;52.526;13.360;2022-10-15T05:23:59;12.90;99.90
3756;DHT22;1893;52.526;13.360;2022-10-15T05:26:27;12.90;99.90
3756;DHT22;1893;52.526;13.360;2022-10-15T05:28:54;12.90;99.90
3756;DHT22;1893;52.526;13.360;2022-10-15T05:31:22;12.90;99.90
3756;DHT22;1893;52.526;13.360;2022-10-15T05:33:49;12.90;99.90
3756;DHT22;1893;52.526;13.360;2022-10-15T05:38:44;12.90;99.90
3756;DHT22;1893;52.526;13.360;2022-10-15T05:41:10;12.90;99.90
3756;DHT22;1893;52.526;13.360;2022-10-15T05:43:36;12.80;99.90
3756;DHT22;1893;52.526;13.360;2022-10-15T05:46:01;12.80;99.90
3756;DHT22;1893;52.526;13.360;2022-10-15T05:48:27;12.80;99.90
3756;DHT22;1893;52.526;13.360;2022-10-15T05:50:53;12.80;99.90
3756;DHT22;1893;52.526;13.360;2022-10-15T05:53:18;12.80;99.90
3756;DHT22;1893;52.526;13.360;2022-10-15T05:55:44;12.90;99.90
3756;DHT22;1893;52.526;13.360;2022-10-15T05:58:10;12.90;99.90
3756;DHT22;1893;52.526;13.360;2022-10-15T06:00:35;12.90;99.90
3756;DHT22;1893;52.526;13.360;2022-10-15T06:03:01;13.00;99.90
3756;DHT22;1893;52.526;13.360;2022-10-15T06:05:26;13.00;99.90
3756;DHT22;1893;52.526;13.360;2022-10-15T06:07:52;13.00;99.90
3756;DHT22;1893;52.526;13.360;2022-10-15T06:10:18;13.00;99.90
3756;DHT22;1893;52.526;13.360;2022-10-15T06:12:51;13.00;99.90
3756;DHT22;1893;52.526;13.360;2022-10-15T06:15:17;13.00;99.90
3756;DHT22;1893;52.526;13.360;2022-10-15T06:17:43;13.00;99.90
3756;DHT22;1893;52.526;13.360;2022-10-15T06:20:10;12.90;99.90
3756;DHT22;1893;52.526;13.360;2022-10-15T06:22:35;13.00;99.90
3756;DHT22;1893;52.526;13.360;2022-10-15T06:25:01;13.00;99.90
3756;DHT22;1893;52.526;13.360;2022-10-15T06:27:26;13.00;99.90
3756;DHT22;1893;52.526;13.360;2022-10-15T06:29:52;13.10;99.90
3756;DHT22;1893;52.526;13.360;2022-10-15T06:32:17;13.10;99.90
3756;DHT22;1893;52.526;13.360;2022-10-15T06:34:43;13.10;99.90
3756;DHT22;1893;52.526;13.360;2022-10-15T06:37:09;13.20;99.90
3756;DHT22;1893;52.526;13.360;2022-10-15T06:39:34;13.20;99.90
3756;DHT22;1893;52.526;13.360;2022-10-15T06:42:00;13.20;99.90
3756;DHT22;1893;52.526;13.360;2022-10-15T06:44:25;13.30;99.90
3756;DHT22;1893;52.526;13.360;2022-10-15T06:46:51;13.40;99.90
3756;DHT22;1893;52.526;13.360;2022-10-15T06:49:16;13.40;99.90
3756;DHT22;1893;52.526;13.360;2022-10-15T06:51:42;13.50;99.90
3756;DHT22;1893;52.526;13.360;2022-10-15T06:54:07;13.60;99.90
3756;DHT22;1893;52.526;13.360;2022-10-15T06:56:33;13.80;99.90
3756;DHT22;1893;52.526;13.360;2022-10-15T06:58:58;13.90;99.90
3756;DHT22;1893;52.526;13.360;2022-10-15T07:01:24;13.90;99.90
3756;DHT22;1893;52.526;13.360;2022-10-15T07:03:50;14.00;99.90
3756;DHT22;1893;52.526;13.360;2022-10-15T07:06:16;14.10;99.90
3756;DHT22;1893;52.526;13.360;2022-10-15T07:08:42;14.10;99.90
3756;DHT22;1893;52.526;13.360;2022-10-15T07:11:09;14.10;99.90
3756;DHT22;1893;52.526;13.360;2022-10-15T07:13:35;14.10;99.90
3756;DHT22;1893;52.526;13.360;2022-10-15T07:16:08;14.10;99.90
3756;DHT22;1893;52.526;13.360;2022-10-15T07:18:35;14.00;99.90
3756;DHT22;1893;52.526;13.360;2022-10-15T07:21:01;14.00;99.90
3756;DHT22;1893;52.526;13.360;2022-10-15T07:23:28;14.10;99.90
3756;DHT22;1893;52.526;13.360;2022-10-15T07:25:56;14.00;99.90
3756;DHT22;1893;52.526;13.360;2022-10-15T07:28:22;14.00;99.90
3756;DHT22;1893;52.526;13.360;2022-10-15T07:30:47;14.00;99.90
3756;DHT22;1893;52.526;13.360;2022-10-15T07:33:13;14.10;99.90
3756;DHT22;1893;52.526;13.360;2022-10-15T07:35:38;14.20;99.90
3756;DHT22;1893;52.526;13.360;2022-10-15T07:38:04;14.30;99.90
3756;DHT22;1893;52.526;13.360;2022-10-15T07:40:30;14.30;99.90
3756;DHT22;1893;52.526;13.360;2022-10-15T07:42:56;14.50;99.90
3756;DHT22;1893;52.526;13.360;2022-10-15T07:45:23;14.60;99.90
3756;DHT22;1893;52.526;13.360;2022-10-15T07:47:49;14.60;99.90
3756;DHT22;1893;52.526;13.360;2022-10-15T07:50:14;14.80;99.90
3756;DHT22;1893;52.526;13.360;2022-10-15T07:52:40;14.80;99.90
3756;DHT22;1893;52.526;13.360;2022-10-15T07:55:06;14.90;99.90
3756;DHT22;1893;52.526;13.360;2022-10-15T07:57:31;15.10;99.90
3756;DHT22;1893;52.526;13.360;2022-10-15T07:59:57;15.40;99.90
3756;DHT22;1893;52.526;13.360;2022-10-15T08:02:22;15.50;99.90
3756;DHT22;1893;52.526;13.360;2022-10-15T08:04:48;15.60;99.90
3756;DHT22;1893;52.526;13.360;2022-10-15T08:07:13;15.70;99.90
3756;DHT22;1893;52.526;13.360;2022-10-15T08:09:39;15.80;99.90
3756;DHT22;1893;52.526;13.360;2022-10-15T08:12:04;16.00;99.90
3756;DHT22;1893;52.526;13.360;2022-10-15T08:14:32;15.90;99.90
3756;DHT22;1893;52.526;13.360;2022-10-15T08:16:58;15.80;99.90
3756;DHT22;1893;52.526;13.360;2022-10-15T08:19:23;15.90;99.90
3756;DHT22;1893;52.526;13.360;2022-10-15T08:21:49;16.10;99.90
3756;DHT22;1893;52.526;13.360;2022-10-15T08:24:14;16.10;99.90
3756;DHT22;1893;52.526;13.360;2022-10-15T08:26:40;16.30;99.90
3756;DHT22;1893;52.526;13.360;2022-10-15T08:29:05;16.60;99.90
3756;DHT22;1893;52.526;13.360;2022-10-15T08:31:31;16.70;99.90
3756;DHT22;1893;52.526;13.360;2022-10-15T08:34:00;17.00;99.90
3756;DHT22;1893;52.526;13.360;2022-10-15T08:36:26;17.10;99.90
3756;DHT22;1893;52.526;13.360;2022-10-15T08:38:52;17.10;99.90
3756;DHT22;1893;52.526;13.360;2022-10-15T08:41:35;16.80;99.90
3756;DHT22;1893;52.526;13.360;2022-10-15T08:44:02;16.80;99.90
3756;DHT22;1893;52.526;13.360;2022-10-15T08:46:34;16.90;99.90
3756;DHT22;1893;52.526;13.360;2022-10-15T08:49:01;17.50;99.90
3756;DHT22;1893;52.526;13.360;2022-10-15T08:51:44;18.00;99.90
3756;DHT22;1893;52.526;13.360;2022-10-15T08:54:17;19.00;1.00
3756;DHT22;1893;52.526;13.360;2022-10-15T08:56:46;19.30;1.00
3756;DHT22;1893;52.526;13.360;2022-10-15T08:59:37;20.00;99.90
3756;DHT22;1893;52.526;13.360;2022-10-15T09:02:33;20.30;99.90
3756;DHT22;1893;52.526;13.360;2022-10-15T09:05:21;20.30;99.90
3756;DHT22;1893;52.526;13.360;2022-10-15T09:07:52;20.20;1.00
3756;DHT22;1893;52.526;13.360;2022-10-15T09:11:06;19.70;1.00
3756;DHT22;1893;52.526;13.360;2022-10-15T09:16:01;18.60;1.00
3756;DHT22;1893;52.526;13.360;2022-10-15T09:18:32;18.30;1.00
3756;DHT22;1893;52.526;13.360;2022-10-15T09:20:59;18.00;1.00
3756;DHT22;1893;52.526;13.360;2022-10-15T09:23:26;18.00;1.00
3756;DHT22;1893;52.526;13.360;2022-10-15T09:26:14;17.90;1.00
3756;DHT22;1893;52.526;13.360;2022-10-15T09:28:54;17.70;1.00
3756;DHT22;1893;52.526;13.360;2022-10-15T09:31:27;17.50;45.50
3756;DHT22;1893;52.526;13.360;2022-10-15T09:34:03;17.40;78.30
3756;DHT22;1893;52.526;13.360;2022-10-15T09:36:43;17.30;99.90
3756;DHT22;1893;52.526;13.360;2022-10-15T09:39:29;17.30;99.90
3756;DHT22;1893;52.526;13.360;2022-10-15T09:44:42;17.30;99.90
3756;DHT22;1893;52.526;13.360;2022-10-15T09:47:21;17.50;99.90
3756;DHT22;1893;52.526;13.360;2022-10-15T09:49:47;17.80;51.80
3756;DHT22;1893;52.526;13.360;2022-10-15T09:52:20;18.10;1.00
3756;DHT22;1893;52.526;13.360;2022-10-15T09:57:34;18.70;1.00
3756;DHT22;1893;52.526;13.360;2022-10-15T10:00:07;18.90;1.00
3756;DHT22;1893;52.526;13.360;2022-10-15T10:02:33;19.20;1.00
3756;DHT22;1893;52.526;13.360;2022-10-15T10:05:18;19.40;99.90
3756;DHT22;1893;52.526;13.360;2022-10-15T10:07:44;19.10;99.90
3756;DHT22;1893;52.526;13.360;2022-10-15T10:10:25;18.50;1.00
3756;DHT22;1893;52.526;13.360;2022-10-15T10:12:53;18.30;1.00
3756;DHT22;1893;52.526;13.360;2022-10-15T10:15:32;18.20;1.00
3756;DHT22;1893;52.526;13.360;2022-10-15T10:17:59;18.20;1.00
3756;DHT22;1893;52.526;13.360;2022-10-15T10:20:27;18.00;1.00
3756;DHT22;1893;52.526;13.360;2022-10-15T10:22:56;18.10;1.00
3756;DHT22;1893;52.526;13.360;2022-10-15T10:25:26;18.20;1.00
3756;DHT22;1893;52.526;13.360;2022-10-15T10:27:54;18.30;1.00
3756;DHT22;1893;52.526;13.360;2022-10-15T10:30:20;18.40;1.00
3756;DHT22;1893;52.526;13.360;2022-10-15T10:32:46;18.40;1.00
3756;DHT22;1893;52.526;13.360;2022-10-15T10:35:19;18.30;1.00
3756;DHT22;1893;52.526;13.360;2022-10-15T10:37:45;18.10;1.00
3756;DHT22;1893;52.526;13.360;2022-10-15T10:40:27;18.20;1.00
3756;DHT22;1893;52.526;13.360;2022-10-15T10:48:23;18.00;1.00
3756;DHT22;1893;52.526;13.360;2022-10-15T10:51:02;17.90;1.00
3756;DHT22;1893;52.526;13.360;2022-10-15T10:53:28;17.80;1.00
3756;DHT22;1893;52.526;13.360;2022-10-15T10:55:54;18.00;1.00
3756;DHT22;1893;52.526;13.360;2022-10-15T10:58:22;18.20;1.00
3756;DHT22;1893;52.526;13.360;2022-10-15T11:00:52;18.30;1.00
3756;DHT22;1893;52.526;13.360;2022-10-15T11:03:30;18.30;1.00
3756;DHT22;1893;52.526;13.360;2022-10-15T11:06:30;18.40;1.00
3756;DHT22;1893;52.526;13.360;2022-10-15T11:09:35;18.60;1.00
3756;DHT22;1893;52.526;13.360;2022-10-15T11:20:48;18.80;1.00
3756;DHT22;1893;52.526;13.360;2022-10-15T11:25:59;18.80;1.00
3756;DHT22;1893;52.526;13.360;2022-10-15T11:29:02;19.00;1.00
3756;DHT22;1893;52.526;13.360;2022-10-15T11:34:30;18.80;1.00
3756;DHT22;1893;52.526;13.360;2022-10-15T11:42:30;18.40;1.00
3756;DHT22;1893;52.526;13.360;2022-10-15T11:45:25;18.50;1.00
3756;DHT22;1893;52.526;13.360;2022-10-15T11:47:58;19.50;99.90
3756;DHT22;1893;52.526;13.360;2022-10-15T11:50:33;19.90;99.90
3756;DHT22;1893;52.526;13.360;2022-10-15T11:56:12;19.40;99.90
3756;DHT22;1893;52.526;13.360;2022-10-15T11:58:42;19.30;88.20
3756;DHT22;1893;52.526;13.360;2022-10-15T12:01:17;19.00;99.90
3756;DHT22;1893;52.526;13.360;2022-10-15T12:03:58;18.60;1.00
3756;DHT22;1893;52.526;13.360;2022-10-15T12:06:29;18.40;1.00
3756;DHT22;1893;52.526;13.360;2022-10-15T12:08:57;18.40;1.00
3756;DHT22;1893;52.526;13.360;2022-10-15T12:13:58;18.50;1.00
3756;DHT22;1893;52.526;13.360;2022-10-15T12:16:39;18.90;1.00
3756;DHT22;1893;52.526;13.360;2022-10-15T12:19:22;19.30;99.90
3756;DHT22;1893;52.526;13.360;2022-10-15T12:24:48;19.70;99.90
3756;DHT22;1893;52.526;13.360;2022-10-15T12:29:51;19.20;1.00
3756;DHT22;1893;52.526;13.360;2022-10-15T12:32:35;19.10;99.90
3756;DHT22;1893;52.526;13.360;2022-10-15T12:35:03;19.00;85.50
3756;DHT22;1893;52.526;13.360;2022-10-15T12:37:32;18.80;99.90
3756;DHT22;1893;52.526;13.360;2022-10-15T12:43:11;18.40;1.00
3756;DHT22;1893;52.526;13.360;2022-10-15T12:45:40;18.50;1.00
3756;DHT22;1893;52.526;13.360;2022-10-15T12:50:41;18.70;99.90
3756;DHT22;1893;52.526;13.360;2022-10-15T12:56:12;18.80;99.90
3756;DHT22;1893;52.526;13.360;2022-10-15T12:58:46;18.60;1.00
3756;DHT22;1893;52.526;13.360;2022-10-15T13:11:29;18.40;1.00
3756;DHT22;1893;52.526;13.360;2022-10-15T13:16:41;18.30;1.00
3756;DHT22;1893;52.526;13.360;2022-10-15T13:19:19;18.30;1.00
3756;DHT22;1893;52.526;13.360;2022-10-15T13:21:50;18.30;1.00
3756;DHT22;1893;52.526;13.360;2022-10-15T13:24:21;18.30;1.00
3756;DHT22;1893;52.526;13.360;2022-10-15T13:26:48;18.40;1.00
3756;DHT22;1893;52.526;13.360;2022-10-15T13:29:24;18.40;1.00
3756;DHT22;1893;52.526;13.360;2022-10-15T13:31:51;18.30;1.00
3756;DHT22;1893;52.526;13.360;2022-10-15T13:36:51;18.40;1.00
3756;DHT22;1893;52.526;13.360;2022-10-15T13:39:35;18.80;1.00
3756;DHT22;1893;52.526;13.360;2022-10-15T13:42:14;18.70;1.00
3756;DHT22;1893;52.526;13.360;2022-10-15T13:44:40;18.60;1.00
3756;DHT22;1893;52.526;13.360;2022-10-15T13:47:40;18.50;1.00
3756;DHT22;1893;52.526;13.360;2022-10-15T13:50:30;18.20;1.00
3756;DHT22;1893;52.526;13.360;2022-10-15T13:53:20;18.20;1.00
3756;DHT22;1893;52.526;13.360;2022-10-15T13:55:50;18.30;1.00
3756;DHT22;1893;52.526;13.360;2022-10-15T13:58:32;18.40;1.00
3756;DHT22;1893;52.526;13.360;2022-10-15T14:01:12;18.30;1.00
3756;DHT22;1893;52.526;13.360;2022-10-15T14:03:45;18.20;1.00
3756;DHT22;1893;52.526;13.360;2022-10-15T14:08:46;18.20;1.00
3756;DHT22;1893;52.526;13.360;2022-10-15T14:11:12;18.20;1.00
3756;DHT22;1893;52.526;13.360;2022-10-15T14:13:52;18.50;1.00
3756;DHT22;1893;52.526;13.360;2022-10-15T14:16:28;18.60;1.00
3756;DHT22;1893;52.526;13.360;2022-10-15T14:19:06;18.40;1.00
3756;DHT22;1893;52.526;13.360;2022-10-15T14:21:33;18.10;1.00
3756;DHT22;1893;52.526;13.360;2022-10-15T14:24:11;17.90;1.00
3756;DHT22;1893;52.526;13.360;2022-10-15T14:26:38;17.80;1.00
3756;DHT22;1893;52.526;13.360;2022-10-15T14:29:05;17.70;1.00
3756;DHT22;1893;52.526;13.360;2022-10-15T14:31:39;17.90;1.00
3756;DHT22;1893;52.526;13.360;2022-10-15T14:37:25;18.20;1.00
3756;DHT22;1893;52.526;13.360;2022-10-15T14:39:48;18.20;1.00
3756;DHT22;1893;52.526;13.360;2022-10-15T14:42:27;18.10;1.00
3756;DHT22;1893;52.526;13.360;2022-10-15T14:44:52;18.10;1.00
3756;DHT22;1893;52.526;13.360;2022-10-15T14:47:23;18.00;1.00
3756;DHT22;1893;52.526;13.360;2022-10-15T14:49:52;18.00;1.00
3756;DHT22;1893;52.526;13.360;2022-10-15T14:52:19;18.00;28.80
3756;DHT22;1893;52.526;13.360;2022-10-15T14:54:59;17.90;46.70
3756;DHT22;1893;52.526;13.360;2022-10-15T14:57:28;17.80;97.90
3756;DHT22;1893;52.526;13.360;2022-10-15T14:59:55;17.80;99.90
3756;DHT22;1893;52.526;13.360;2022-10-15T15:02:23;17.70;99.90
3756;DHT22;1893;52.526;13.360;2022-10-15T15:07:39;17.60;99.90
3756;DHT22;1893;52.526;13.360;2022-10-15T15:10:06;17.70;99.90
3756;DHT22;1893;52.526;13.360;2022-10-15T15:12:32;17.70;99.90
3756;DHT22;1893;52.526;13.360;2022-10-15T15:14:58;17.70;99.90
3756;DHT22;1893;52.526;13.360;2022-10-15T15:17:27;17.50;99.90
3756;DHT22;1893;52.526;13.360;2022-10-15T15:19:54;17.50;99.90
3756;DHT22;1893;52.526;13.360;2022-10-15T15:22:30;17.40;99.90
3756;DHT22;1893;52.526;13.360;2022-10-15T15:24:57;17.50;99.90
3756;DHT22;1893;52.526;13.360;2022-10-15T15:27:31;17.50;99.90
3756;DHT22;1893;52.526;13.360;2022-10-15T15:30:06;17.50;99.90
3756;DHT22;1893;52.526;13.360;2022-10-15T15:32:32;17.50;99.90
3756;DHT22;1893;52.526;13.360;2022-10-15T15:34:58;17.50;99.90
3756;DHT22;1893;52.526;13.360;2022-10-15T15:37:25;17.40;99.90
3756;DHT22;1893;52.526;13.360;2022-10-15T15:39:51;17.40;99.90
3756;DHT22;1893;52.526;13.360;2022-10-15T15:42:19;17.40;99.90
3756;DHT22;1893;52.526;13.360;2022-10-15T15:44:45;17.40;99.90
3756;DHT22;1893;52.526;13.360;2022-10-15T15:47:11;17.30;99.90
3756;DHT22;1893;52.526;13.360;2022-10-15T15:49:38;17.30;99.90
3756;DHT22;1893;52.526;13.360;2022-10-15T15:52:05;17.30;99.90
3756;DHT22;1893;52.526;13.360;2022-10-15T15:54:33;17.20;99.90
3756;DHT22;1893;52.526;13.360;2022-10-15T15:56:58;17.10;99.90
3756;DHT22;1893;52.526;13.360;2022-10-15T15:59:24;17.00;99.90
3756;DHT22;1893;52.526;13.360;2022-10-15T16:01:49;17.00;99.90
3756;DHT22;1893;52.526;13.360;2022-10-15T16:04:15;17.00;99.90
3756;DHT22;1893;52.526;13.360;2022-10-15T16:06:41;16.90;99.90
3756;DHT22;1893;52.526;13.360;2022-10-15T16:09:07;16.80;99.90
3756;DHT22;1893;52.526;13.360;2022-10-15T16:11:33;16.80;99.90
3756;DHT22;1893;52.526;13.360;2022-10-15T16:14:01;16.70;99.90
3756;DHT22;1893;52.526;13.360;2022-10-15T16:16:26;16.60;99.90
3756;DHT22;1893;52.526;13.360;2022-10-15T16:18:52;16.60;99.90
3756;DHT22;1893;52.526;13.360;2022-10-15T16:21:23;16.50;99.90
3756;DHT22;1893;52.526;13.360;2022-10-15T16:23:49;16.50;99.90
3756;DHT22;1893;52.526;13.360;2022-10-15T16:26:15;16.40;99.90
3756;DHT22;1893;52.526;13.360;2022-10-15T16:28:40;16.40;99.90
3756;DHT22;1893;52.526;13.360;2022-10-15T16:31:18;16.30;99.90
3756;DHT22;1893;52.526;13.360;2022-10-15T16:33:44;16.30;99.90
3756;DHT22;1893;52.526;13.360;2022-10-15T16:36:10;16.30;99.90
3756;DHT22;1893;52.526;13.360;2022-10-15T16:38:38;16.20;99.90
3756;DHT22;1893;52.526;13.360;2022-10-15T16:41:05;16.10;99.90
3756;DHT22;1893;52.526;13.360;2022-10-15T16:43:31;16.10;99.90
3756;DHT22;1893;52.526;13.360;2022-10-15T16:45:57;16.00;99.90
3756;DHT22;1893;52.526;13.360;2022-10-15T16:48:23;16.00;99.90
3756;DHT22;1893;52.526;13.360;2022-10-15T16:51:05;16.10;99.90
3756;DHT22;1893;52.526;13.360;2022-10-15T16:53:32;16.10;99.90
3756;DHT22;1893;52.526;13.360;2022-10-15T16:56:00;16.00;99.90
3756;DHT22;1893;52.526;13.360;2022-10-15T16:58:27;16.00;99.90
3756;DHT22;1893;52.526;13.360;2022-10-15T17:00:55;16.00;99.90
3756;DHT22;1893;52.526;13.360;2022-10-15T17:03:21;16.10;99.90
3756;DHT22;1893;52.526;13.360;2022-10-15T17:05:47;16.00;99.90
3756;DHT22;1893;52.526;13.360;2022-10-15T17:08:12;15.90;99.90
3756;DHT22;1893;52.526;13.360;2022-10-15T17:10:41;16.00;99.90
3756;DHT22;1893;52.526;13.360;2022-10-15T17:13:07;15.90;99.90
3756;DHT22;1893;52.526;13.360;2022-10-15T17:15:33;15.90;99.90
3756;DHT22;1893;52.526;13.360;2022-10-15T17:17:58;15.80;99.90
3756;DHT22;1893;52.526;13.360;2022-10-15T17:20:24;15.70;99.90
3756;DHT22;1893;52.526;13.360;2022-10-15T17:22:49;15.80;99.90
3756;DHT22;1893;52.526;13.360;2022-10-15T17:25:15;15.80;99.90
3756;DHT22;1893;52.526;13.360;2022-10-15T17:27:43;15.70;99.90
3756;DHT22;1893;52.526;13.360;2022-10-15T17:30:08;15.70;99.90
3756;DHT22;1893;52.526;13.360;2022-10-15T17:32:34;15.70;99.90
3756;DHT22;1893;52.526;13.360;2022-10-15T17:35:00;15.70;99.90
3756;DHT22;1893;52.526;13.360;2022-10-15T17:37:25;15.60;99.90
3756;DHT22;1893;52.526;13.360;2022-10-15T17:39:51;15.60;99.90
3756;DHT22;1893;52.526;13.360;2022-10-15T17:42:17;15.70;99.90
3756;DHT22;1893;52.526;13.360;2022-10-15T17:44:43;15.50;99.90
3756;DHT22;1893;52.526;13.360;2022-10-15T17:47:08;15.50;99.90